Time;durP1;ratioP1;P1;durP2;ratioP2;P2;SDS_P1;SDS_P2;PMS_P1;PMS_P2;Temp;Humidity;BMP_temperature;BMP_pressure;BME280_temperature;BME280_humidity;BME280_pressure;Samples;Min_cycle;Max_cycle;Signal;HPM_P1;HPM_P2
2023/06/24 00:04:37;;;;;;;3.60;3.28;;;23.30;64.80;;;;;;10322573;28;20351;-61
2023/06/24 00:09:37;;;;;;;4.68;3.72;;;23.30;64.80;;;;;;10321221;28;20463;-60
2023/06/24 00:14:38;;;;;;;4.15;3.63;;;23.30;64.80;;;;;;10322597;28;20113;-61
2023/06/24 00:19:39;;;;;;;4.05;3.63;;;23.30;64.80;;;;;;10305884;28;20029;-60
2023/06/24 00:24:42;;;;;;;4.18;3.67;;;23.30;64.90;;;;;;10321668;28;20077;-61
2023/06/24 00:29:43;;;;;;;4.40;4.00;;;23.30;64.80;;;;;;10317387;28;20011;-61
2023/06/24 00:34:43;;;;;;;4.82;4.07;;;23.30;64.70;;;;;;10302043;28;20109;-61
2023/06/24 00:39:44;;;;;;;4.15;3.75;;;23.30;64.70;;;;;;10321212;28;20579;-61
2023/06/24 00:44:45;;;;;;;4.90;3.80;;;23.30;64.80;;;;;;10321111;28;20336;-60
2023/06/24 00:49:45;;;;;;;4.18;3.70;;;23.20;64.70;;;;;;10321971;28;20022;-61
2023/06/24 00:54:46;;;;;;;4.55;3.90;;;23.30;64.70;;;;;;10320837;28;20050;-61
2023/06/24 00:59:47;;;;;;;4.18;3.28;;;23.30;64.80;;;;;;10320306;28;20061;-60
2023/06/24 01:04:51;;;;;;;4.05;3.63;;;23.20;64.70;;;;;;10320290;28;20025;-61
2023/06/24 01:09:52;;;;;;;5.07;4.10;;;23.30;64.70;;;;;;10321335;28;20113;-61
2023/06/24 01:14:53;;;;;;;3.97;3.58;;;23.20;64.60;;;;;;10313064;28;20040;-61
2023/06/24 01:20:32;;;;;;;4.75;3.78;;;23.30;64.70;;;;;;10313786;28;20037;-61
2023/06/24 01:25:59;;;;;;;5.13;3.63;;;23.20;64.60;;;;;;10319760;28;20041;-61
2023/06/24 01:31:17;;;;;;;4.55;3.88;;;23.20;64.60;;;;;;10320533;28;20406;-61
2023/06/24 01:36:21;;;;;;;3.88;3.47;;;23.20;64.60;;;;;;10320309;28;20073;-61
2023/06/24 01:41:26;;;;;;;4.35;3.63;;;23.20;64.60;;;;;;10319366;28;20421;-61
2023/06/24 01:46:29;;;;;;;4.72;4.00;;;23.20;64.60;;;;;;10302692;28;20489;-61
2023/06/24 01:51:31;;;;;;;5.55;3.95;;;23.20;64.50;;;;;;10307928;28;20401;-61
2023/06/24 01:56:35;;;;;;;4.72;3.97;;;23.20;64.50;;;;;;10308585;28;20052;-61
2023/06/24 02:01:38;;;;;;;4.13;3.67;;;23.20;64.50;;;;;;10309651;28;20045;-61
2023/06/24 02:06:41;;;;;;;4.95;4.05;;;23.10;64.50;;;;;;10302770;28;20019;-59
2023/06/24 02:11:42;;;;;;;4.68;4.18;;;23.10;64.40;;;;;;10302214;28;20041;-60
2023/06/24 02:16:43;;;;;;;4.68;3.97;;;23.10;64.40;;;;;;10319031;28;20572;-61
2023/06/24 02:21:45;;;;;;;4.55;4.13;;;23.20;64.50;;;;;;10319154;28;20034;-61
2023/06/24 02:26:47;;;;;;;4.90;3.80;;;23.10;64.40;;;;;;10318338;28;20015;-61
2023/06/24 02:31:48;;;;;;;4.82;3.90;;;23.10;64.40;;;;;;10321582;28;20053;-60
2023/06/24 02:36:48;;;;;;;5.20;4.20;;;23.10;64.40;;;;;;10327293;28;20173;-61
2023/06/24 02:41:49;;;;;;;4.57;4.00;;;23.10;65.00;;;;;;10325924;28;20025;-61
2023/06/24 02:46:51;;;;;;;4.43;3.88;;;23.10;64.40;;;;;;10325416;28;20292;-61
2023/06/24 02:51:52;;;;;;;5.47;4.93;;;23.10;64.30;;;;;;10325071;28;20077;-61
2023/06/24 02:56:56;;;;;;;6.10;3.90;;;23.10;64.30;;;;;;10325291;28;20019;-61
2023/06/24 03:01:57;;;;;;;5.18;3.90;;;23.10;64.30;;;;;;10318351;28;20041;-61
2023/06/24 03:06:59;;;;;;;5.07;4.05;;;23.10;64.30;;;;;;10320634;28;20026;-61
2023/06/24 03:12:00;;;;;;;5.35;4.30;;;23.10;64.30;;;;;;10320246;28;20033;-61
2023/06/24 03:17:01;;;;;;;5.28;4.20;;;23.10;64.10;;;;;;10325576;28;20295;-61
2023/06/24 03:22:02;;;;;;;5.93;5.32;;;23.00;64.10;;;;;;10307340;28;20037;-60
2023/06/24 03:27:03;;;;;;;4.88;4.03;;;23.10;64.20;;;;;;10324561;28;20381;-61
2023/06/24 03:32:05;;;;;;;4.05;3.65;;;23.00;64.20;;;;;;10282647;28;20505;-59
2023/06/24 03:37:05;;;;;;;5.28;4.32;;;23.10;64.20;;;;;;10326021;28;20043;-62
2023/06/24 03:42:06;;;;;;;5.57;5.07;;;23.00;64.10;;;;;;10325372;28;20036;-60
2023/06/24 03:47:07;;;;;;;5.72;4.68;;;23.00;64.10;;;;;;10326045;28;20085;-61
2023/06/24 03:52:10;;;;;;;4.80;4.30;;;23.00;64.10;;;;;;10324421;28;20482;-60
2023/06/24 03:57:15;;;;;;;4.43;3.58;;;23.00;64.10;;;;;;10324133;28;20045;-60
2023/06/24 04:02:15;;;;;;;4.97;4.47;;;23.00;64.00;;;;;;10319962;28;20386;-61
2023/06/24 04:07:26;;;;;;;4.95;4.45;;;23.00;64.00;;;;;;10323634;28;20022;-60
2023/06/24 04:12:27;;;;;;;4.63;4.15;;;23.00;64.00;;;;;;10323469;28;20019;-60
2023/06/24 04:17:28;;;;;;;5.65;4.32;;;23.00;63.90;;;;;;10324438;28;20022;-61
2023/06/24 04:22:28;;;;;;;4.72;3.92;;;23.00;64.00;;;;;;10323187;28;20755;-61
2023/06/24 04:27:29;;;;;;;6.07;4.25;;;23.00;64.00;;;;;;10323219;28;20134;-61
2023/06/24 04:32:30;;;;;;;4.68;4.28;;;23.00;64.00;;;;;;10323334;28;20097;-60
2023/06/24 04:37:30;;;;;;;4.68;3.90;;;23.00;64.00;;;;;;10322176;28;20050;-61
2023/06/24 04:42:31;;;;;;;5.53;4.95;;;23.00;64.00;;;;;;10324082;28;20751;-61
2023/06/24 04:47:32;;;;;;;4.05;3.60;;;23.00;64.00;;;;;;10323433;28;20053;-60
2023/06/24 04:52:32;;;;;;;4.90;4.10;;;23.00;64.00;;;;;;10317620;28;20069;-60
2023/06/24 04:57:35;;;;;;;4.25;3.55;;;23.00;64.00;;;;;;10322080;28;20022;-61
2023/06/24 05:02:36;;;;;;;5.43;4.70;;;23.00;64.00;;;;;;10321350;28;20053;-61
2023/06/24 05:07:37;;;;;;;4.20;3.80;;;23.00;64.00;;;;;;10323043;28;20389;-59
2023/06/24 05:12:37;;;;;;;4.18;3.72;;;23.00;64.10;;;;;;10309418;28;20023;-61
2023/06/24 05:17:40;;;;;;;4.82;3.90;;;23.00;64.00;;;;;;10310453;28;20618;-60
2023/06/24 05:22:40;;;;;;;4.50;4.10;;;23.00;64.10;;;;;;10320974;28;20027;-61
2023/06/24 05:27:41;;;;;;;4.25;3.85;;;23.00;64.00;;;;;;10312268;28;20513;-60
2023/06/24 05:32:42;;;;;;;4.18;3.65;;;23.00;64.10;;;;;;10321673;28;20057;-61
2023/06/24 05:37:42;;;;;;;4.05;3.65;;;23.00;64.10;;;;;;10320342;28;20054;-59
2023/06/24 05:42:43;;;;;;;4.40;4.00;;;23.00;64.10;;;;;;10320020;28;20022;-61
2023/06/24 05:47:46;;;;;;;4.40;3.60;;;23.00;64.10;;;;;;10317809;28;20015;-60
2023/06/24 05:52:47;;;;;;;4.72;3.47;;;23.00;64.10;;;;;;10321800;28;20029;-61
2023/06/24 05:57:47;;;;;;;4.53;3.72;;;23.00;64.20;;;;;;10304323;28;20704;-59
2023/06/24 06:02:48;;;;;;;4.30;3.90;;;23.00;64.10;;;;;;10304360;28;20117;-61
2023/06/24 06:07:49;;;;;;;4.18;3.78;;;23.00;64.20;;;;;;10328557;28;20149;-61
2023/06/24 06:12:49;;;;;;;5.03;4.53;;;23.00;64.20;;;;;;10329363;28;20730;-61
2023/06/24 06:17:52;;;;;;;4.95;4.20;;;23.00;64.20;;;;;;10328177;28;20520;-61
2023/06/24 06:22:52;;;;;;;4.28;3.88;;;23.00;64.20;;;;;;10320225;28;20443;-61
2023/06/24 06:27:53;;;;;;;4.70;4.00;;;23.00;64.20;;;;;;10328256;28;20032;-61
2023/06/24 06:32:54;;;;;;;4.22;3.30;;;23.00;64.20;;;;;;10328917;28;20054;-60
2023/06/24 06:37:54;;;;;;;5.28;3.80;;;23.00;64.10;;;;;;10328540;28;20054;-60
2023/06/24 06:42:55;;;;;;;5.38;4.07;;;23.00;64.10;;;;;;10324216;28;20106;-61
2023/06/24 06:47:56;;;;;;;4.75;3.63;;;23.00;64.00;;;;;;10327068;28;20014;-61
2023/06/24 06:52:56;;;;;;;4.22;3.42;;;23.10;63.80;;;;;;10326102;28;20031;-62
2023/06/24 06:57:57;;;;;;;4.28;3.60;;;23.10;63.50;;;;;;10314575;28;20109;-61
2023/06/24 07:02:58;;;;;;;5.43;4.10;;;23.10;63.60;;;;;;10314609;28;20038;-60
2023/06/24 07:07:58;;;;;;;4.10;3.63;;;23.20;63.50;;;;;;10326491;28;20077;-61
2023/06/24 07:12:59;;;;;;;4.40;3.67;;;23.20;63.40;;;;;;10327506;28;20524;-61
2023/06/24 07:18:00;;;;;;;5.28;3.67;;;23.20;63.40;;;;;;10325152;28;20084;-61
2023/06/24 07:23:00;;;;;;;4.47;3.95;;;23.20;63.40;;;;;;10325832;28;20106;-61
2023/06/24 07:28:01;;;;;;;4.00;3.08;;;23.30;63.30;;;;;;10325363;28;20097;-60
2023/06/24 07:33:05;;;;;;;5.38;3.67;;;23.20;63.30;;;;;;10325188;28;20568;-61
2023/06/24 07:38:05;;;;;;;4.13;3.25;;;23.30;63.30;;;;;;10322232;28;20042;-60
2023/06/24 07:43:06;;;;;;;4.03;3.22;;;23.30;63.30;;;;;;10323447;28;20027;-59
2023/06/24 07:48:07;;;;;;;4.63;3.70;;;23.30;63.10;;;;;;10326156;28;20042;-60
2023/06/24 07:53:07;;;;;;;4.18;3.30;;;23.40;63.10;;;;;;10325652;28;20125;-60
2023/06/24 07:58:08;;;;;;;3.88;3.13;;;23.30;62.90;;;;;;10312685;28;20037;-61
2023/06/24 08:03:09;;;;;;;3.40;3.10;;;23.40;63.00;;;;;;10325493;28;20038;-61
2023/06/24 08:08:10;;;;;;;4.82;3.10;;;23.40;63.00;;;;;;10325381;28;20073;-60
2023/06/24 08:13:11;;;;;;;3.83;2.78;;;23.40;63.00;;;;;;10316753;28;20418;-61
2023/06/24 08:18:12;;;;;;;4.53;3.70;;;23.40;63.00;;;;;;10323174;28;20022;-60
2023/06/24 08:23:12;;;;;;;4.55;3.55;;;23.40;63.00;;;;;;10324342;28;20030;-61
2023/06/24 08:28:13;;;;;;;4.22;3.00;;;23.40;62.90;;;;;;10293044;28;20023;-61
2023/06/24 08:33:13;;;;;;;3.90;3.25;;;23.40;62.80;;;;;;10320218;28;20141;-60
2023/06/24 08:38:14;;;;;;;4.60;3.38;;;23.50;62.80;;;;;;10324546;28;20138;-59
2023/06/24 08:43:15;;;;;;;3.55;2.67;;;23.50;62.60;;;;;;10322102;28;20113;-60
2023/06/24 08:48:17;;;;;;;4.65;2.90;;;23.50;62.50;;;;;;10322503;28;20018;-60
2023/06/24 08:53:20;;;;;;;3.60;3.20;;;23.50;62.50;;;;;;10322596;28;20077;-60
2023/06/24 08:58:21;;;;;;;3.53;2.53;;;23.50;62.50;;;;;;10322147;28;20698;-60
2023/06/24 09:03:22;;;;;;;3.10;2.42;;;23.50;62.30;;;;;;10305681;28;20042;-60
2023/06/24 09:08:23;;;;;;;3.38;2.67;;;23.50;62.20;;;;;;10321407;28;20019;-61
2023/06/24 09:13:37;;;;;;;3.13;2.55;;;23.50;62.20;;;;;;10322678;28;20040;-60
2023/06/24 09:18:37;;;;;;;3.22;2.75;;;23.50;62.30;;;;;;10304945;28;20030;-60
2023/06/24 09:23:39;;;;;;;3.15;2.22;;;23.50;62.40;;;;;;10322277;28;20065;-61
2023/06/24 09:28:40;;;;;;;4.60;2.85;;;23.50;62.30;;;;;;10322376;28;20121;-61
2023/06/24 09:33:41;;;;;;;4.72;2.80;;;23.50;62.50;;;;;;10320474;28;20388;-60
2023/06/24 09:38:45;;;;;;;4.10;2.78;;;23.50;62.50;;;;;;10303760;28;20587;-61
2023/06/24 09:43:46;;;;;;;3.47;2.63;;;23.50;62.50;;;;;;10319962;28;20089;-60
2023/06/24 09:48:46;;;;;;;3.85;2.75;;;23.50;62.50;;;;;;10321852;28;20565;-60
2023/06/24 09:53:47;;;;;;;3.78;3.28;;;23.50;62.50;;;;;;10321970;28;20068;-60
2023/06/24 09:58:48;;;;;;;3.53;3.20;;;23.50;62.30;;;;;;10321478;28;20018;-59
2023/06/24 10:03:49;;;;;;;3.97;2.88;;;23.60;62.30;;;;;;10315588;28;20049;-60
2023/06/24 10:08:50;;;;;;;4.18;3.17;;;23.60;62.30;;;;;;10317186;28;20018;-60
2023/06/24 10:13:52;;;;;;;4.50;2.80;;;23.60;62.30;;;;;;10320166;28;20026;-59
2023/06/24 10:19:01;;;;;;;4.15;3.30;;;23.60;62.30;;;;;;10319951;28;20035;-58
2023/06/24 10:24:04;;;;;;;4.78;3.10;;;23.60;62.20;;;;;;10320950;28;20488;-61
2023/06/24 10:29:04;;;;;;;3.53;2.90;;;23.60;62.00;;;;;;10303978;28;20037;-60
2023/06/24 10:34:23;;;;;;;3.58;2.92;;;23.70;62.10;;;;;;10319432;28;20055;-61
2023/06/24 10:39:49;;;;;;;4.22;3.08;;;23.60;62.10;;;;;;10320570;28;20085;-59
2023/06/24 10:44:51;;;;;;;3.75;3.05;;;23.70;62.10;;;;;;10318526;28;20030;-61
2023/06/24 10:49:52;;;;;;;4.47;2.78;;;23.70;62.10;;;;;;10307677;28;20094;-60
2023/06/24 10:54:54;;;;;;;3.70;2.67;;;23.70;62.10;;;;;;10314732;28;20498;-60
2023/06/24 10:59:57;;;;;;;3.58;3.00;;;23.70;62.20;;;;;;10317056;28;20234;-60
2023/06/24 11:05:02;;;;;;;3.72;2.67;;;23.70;62.10;;;;;;10301894;28;20250;-60
2023/06/24 11:10:13;;;;;;;3.50;2.90;;;23.70;62.10;;;;;;10319813;28;20374;-61
2023/06/24 11:15:14;;;;;;;3.25;2.40;;;23.70;62.10;;;;;;10305707;28;20030;-63
2023/06/24 11:20:14;;;;;;;3.42;2.72;;;23.70;62.20;;;;;;10327074;28;20555;-59
2023/06/24 11:25:23;;;;;;;4.05;2.85;;;23.80;62.30;;;;;;10309039;28;20080;-60
2023/06/24 11:30:24;;;;;;;3.92;2.97;;;23.80;62.10;;;;;;10325559;28;20022;-61
2023/06/24 11:35:25;;;;;;;4.05;2.78;;;23.80;62.20;;;;;;10325083;28;20464;-60
2023/06/24 11:40:26;;;;;;;4.25;2.67;;;23.80;62.20;;;;;;10312160;28;20018;-60
2023/06/24 11:45:27;;;;;;;2.92;2.33;;;23.80;62.10;;;;;;10316463;28;20042;-61
2023/06/24 11:50:27;;;;;;;3.03;2.60;;;23.80;62.00;;;;;;10324270;28;20643;-61
2023/06/24 11:55:31;;;;;;;3.97;3.10;;;23.80;62.10;;;;;;10325874;28;20124;-61
2023/06/24 12:00:43;;;;;;;3.70;2.78;;;23.80;62.10;;;;;;10319376;28;20096;-60
2023/06/24 12:05:47;;;;;;;4.45;3.17;;;23.80;62.70;;;;;;10322337;28;20030;-59
2023/06/24 12:10:48;;;;;;;4.68;2.90;;;23.80;62.10;;;;;;10323993;28;20038;-61
2023/06/24 12:15:49;;;;;;;3.03;2.40;;;23.90;62.10;;;;;;10324760;28;20098;-61
2023/06/24 12:20:49;;;;;;;3.78;2.42;;;23.80;62.00;;;;;;10312947;28;20109;-61
2023/06/24 12:25:50;;;;;;;3.28;2.55;;;23.90;62.10;;;;;;10324561;28;20510;-60
2023/06/24 12:30:51;;;;;;;4.28;3.38;;;23.90;62.20;;;;;;10322842;28;20534;-59
2023/06/24 12:35:51;;;;;;;3.90;3.00;;;23.80;62.10;;;;;;10323988;28;20073;-60
2023/06/24 12:40:52;;;;;;;3.42;2.83;;;23.90;62.30;;;;;;10322498;28;20149;-61
2023/06/24 12:45:53;;;;;;;3.58;2.85;;;23.90;62.20;;;;;;10317200;28;20034;-60
2023/06/24 12:50:54;;;;;;;3.25;2.35;;;23.90;62.20;;;;;;10323391;28;20845;-60
2023/06/24 12:55:56;;;;;;;3.35;2.92;;;23.90;62.20;;;;;;10319604;28;20453;-60
2023/06/24 13:00:57;;;;;;;4.47;3.42;;;23.90;62.20;;;;;;10324150;28;20029;-61
2023/06/24 13:05:57;;;;;;;3.60;2.92;;;23.90;62.20;;;;;;10323293;28;20036;-61
2023/06/24 13:10:58;;;;;;;3.72;2.92;;;23.90;62.20;;;;;;10323067;28;20034;-61
2023/06/24 13:15:59;;;;;;;3.60;2.75;;;23.90;62.20;;;;;;10310117;28;20021;-61
2023/06/24 13:20:59;;;;;;;4.13;3.55;;;23.90;62.30;;;;;;10311230;28;20087;-61
2023/06/24 13:26:00;;;;;;;3.72;2.95;;;23.90;62.30;;;;;;10312300;28;20030;-61
2023/06/24 13:31:01;;;;;;;3.65;2.80;;;23.90;62.20;;;;;;10313422;28;20105;-61
2023/06/24 13:36:02;;;;;;;3.47;2.83;;;23.90;62.10;;;;;;10321654;28;20148;-61
2023/06/24 13:41:03;;;;;;;3.95;2.83;;;23.90;62.10;;;;;;10322126;28;20536;-61
2023/06/24 13:46:04;;;;;;;4.65;3.42;;;23.90;62.00;;;;;;10321663;28;20089;-61
2023/06/24 13:51:06;;;;;;;5.30;3.47;;;23.90;62.00;;;;;;10317588;28;20120;-61
2023/06/24 13:56:07;;;;;;;4.20;3.45;;;24.00;62.10;;;;;;10321815;28;20076;-59
2023/06/24 14:01:07;;;;;;;3.63;3.00;;;24.00;62.00;;;;;;10320343;28;20081;-61
2023/06/24 14:06:08;;;;;;;4.82;3.53;;;24.00;61.90;;;;;;10307397;28;20401;-60
2023/06/24 14:11:09;;;;;;;3.60;2.55;;;24.00;62.00;;;;;;10308744;28;20390;-61
2023/06/24 14:16:11;;;;;;;6.07;3.38;;;23.90;61.90;;;;;;10321090;28;20031;-60
2023/06/24 14:21:11;;;;;;;4.90;3.65;;;23.90;62.00;;;;;;10303798;28;20470;-61
2023/06/24 14:26:12;;;;;;;4.32;2.80;;;23.90;62.00;;;;;;10304872;28;20030;-61
2023/06/24 14:31:13;;;;;;;3.88;2.83;;;23.90;62.10;;;;;;10304486;28;20046;-60
2023/06/24 14:36:13;;;;;;;3.55;2.60;;;23.90;62.20;;;;;;10327830;28;20456;-59
2023/06/24 14:41:14;;;;;;;4.32;3.10;;;23.90;62.10;;;;;;10328798;28;20036;-61
2023/06/24 14:46:15;;;;;;;4.57;3.30;;;23.90;62.00;;;;;;10326987;28;20250;-61
2023/06/24 14:51:16;;;;;;;3.90;2.67;;;23.90;62.00;;;;;;10326968;28;20026;-60
2023/06/24 14:56:16;;;;;;;3.92;2.95;;;23.90;62.20;;;;;;10327867;28;20060;-60
2023/06/24 15:01:17;;;;;;;4.15;3.28;;;23.90;62.10;;;;;;10326252;28;20385;-60
2023/06/24 15:06:18;;;;;;;5.70;3.22;;;23.90;62.10;;;;;;10327520;28;20565;-60
2023/06/24 15:11:18;;;;;;;4.00;3.03;;;23.90;62.00;;;;;;10316874;28;20026;-60
2023/06/24 15:16:19;;;;;;;3.72;3.00;;;24.00;61.90;;;;;;10317862;28;20061;-60
2023/06/24 15:21:20;;;;;;;4.72;3.13;;;24.00;61.90;;;;;;10309876;28;20129;-60
2023/06/24 15:26:20;;;;;;;3.67;2.90;;;24.00;62.10;;;;;;10326591;28;20029;-61
2023/06/24 15:31:21;;;;;;;6.03;3.08;;;24.00;62.10;;;;;;10309182;28;20609;-60
2023/06/24 15:36:26;;;;;;;4.70;3.97;;;24.00;62.10;;;;;;10325906;28;20057;-61
2023/06/24 15:41:26;;;;;;;4.95;3.40;;;24.00;62.50;;;;;;10326087;28;20025;-61
2023/06/24 15:46:27;;;;;;;4.35;3.60;;;24.00;61.80;;;;;;10325982;28;20545;-60
2023/06/24 15:51:28;;;;;;;4.03;3.35;;;24.00;61.80;;;;;;10324566;28;20570;-60
2023/06/24 15:56:28;;;;;;;3.75;2.92;;;24.00;61.70;;;;;;10308261;28;20114;-61
2023/06/24 16:01:29;;;;;;;4.57;3.22;;;24.00;61.90;;;;;;10314666;28;20108;-60
2023/06/24 16:06:30;;;;;;;3.70;3.00;;;24.00;61.80;;;;;;10299142;28;20130;-58
2023/06/24 16:11:31;;;;;;;5.18;4.50;;;24.00;61.90;;;;;;10299945;28;20373;-60
2023/06/24 16:16:31;;;;;;;5.32;3.15;;;24.00;61.70;;;;;;10325150;28;20101;-61
2023/06/24 16:21:32;;;;;;;4.68;3.25;;;24.00;61.80;;;;;;10323397;28;20033;-61
2023/06/24 16:26:33;;;;;;;4.70;3.78;;;24.10;61.90;;;;;;10318821;28;20038;-61
2023/06/24 16:31:34;;;;;;;4.88;3.70;;;24.10;61.90;;;;;;10319762;28;20010;-61
2023/06/24 16:36:34;;;;;;;3.90;3.10;;;24.10;61.80;;;;;;10320518;28;20539;-61
2023/06/24 16:41:35;;;;;;;4.35;3.55;;;24.10;61.90;;;;;;10322629;28;20473;-61
2023/06/24 16:46:36;;;;;;;4.70;3.42;;;24.00;62.00;;;;;;10310235;28;20030;-60
2023/06/24 16:51:37;;;;;;;3.22;2.83;;;24.10;62.10;;;;;;10310348;28;20025;-61
2023/06/24 16:56:37;;;;;;;4.00;3.35;;;24.10;62.20;;;;;;10306260;28;20421;-61
2023/06/24 17:01:39;;;;;;;3.00;2.53;;;24.10;62.10;;;;;;10322175;28;20084;-61
2023/06/24 17:06:40;;;;;;;4.25;3.55;;;24.10;62.20;;;;;;10322051;28;20516;-60
2023/06/24 17:11:41;;;;;;;4.00;3.58;;;24.10;62.80;;;;;;10322759;28;20089;-60
2023/06/24 17:16:41;;;;;;;4.90;3.63;;;24.10;62.30;;;;;;10321591;28;20496;-60
2023/06/24 17:21:42;;;;;;;3.97;3.20;;;24.10;62.30;;;;;;10321647;28;20026;-60
2023/06/24 17:26:43;;;;;;;4.53;3.38;;;24.10;62.40;;;;;;10318954;28;20117;-61
2023/06/24 17:31:43;;;;;;;3.92;3.00;;;24.10;62.40;;;;;;10320139;28;20065;-60
2023/06/24 17:36:44;;;;;;;3.55;2.80;;;24.10;62.40;;;;;;10321935;28;20125;-60
2023/06/24 17:41:45;;;;;;;4.78;2.88;;;24.10;62.70;;;;;;10320608;28;20385;-61
2023/06/24 17:46:45;;;;;;;3.83;2.88;;;24.00;62.60;;;;;;10320778;28;20650;-60
2023/06/24 17:51:46;;;;;;;4.85;3.63;;;24.00;62.50;;;;;;10310573;28;20097;-60
2023/06/24 17:56:47;;;;;;;4.20;2.95;;;24.00;62.60;;;;;;10321814;28;20117;-60
2023/06/24 18:01:48;;;;;;;4.10;3.13;;;24.00;62.60;;;;;;10316598;28;20029;-61
2023/06/24 18:06:48;;;;;;;3.60;2.83;;;24.00;62.70;;;;;;10321895;28;20035;-61
2023/06/24 18:11:49;;;;;;;3.47;2.97;;;24.00;62.80;;;;;;10323125;28;20116;-61
2023/06/24 18:16:51;;;;;;;3.42;3.13;;;24.00;62.70;;;;;;10329667;28;20077;-60
2023/06/24 18:21:52;;;;;;;3.88;3.05;;;24.00;62.60;;;;;;10325135;28;20661;-61
2023/06/24 18:26:53;;;;;;;4.25;3.80;;;24.00;62.70;;;;;;10326214;28;20138;-60
2023/06/24 18:31:54;;;;;;;3.70;2.85;;;24.00;62.80;;;;;;10328900;28;20433;-61
2023/06/24 18:36:54;;;;;;;4.38;3.42;;;24.00;62.80;;;;;;10327245;28;20370;-60
2023/06/24 18:41:55;;;;;;;4.47;3.67;;;24.00;62.80;;;;;;10328508;28;20113;-60
2023/06/24 18:46:56;;;;;;;4.57;3.65;;;24.00;62.80;;;;;;10317052;28;20034;-60
2023/06/24 18:51:56;;;;;;;4.32;3.40;;;24.00;62.80;;;;;;10328371;28;20098;-60
2023/06/24 18:56:57;;;;;;;4.10;3.10;;;24.00;63.00;;;;;;10328355;28;20026;-60
2023/06/24 19:01:57;;;;;;;4.35;3.33;;;24.00;63.00;;;;;;10328027;28;20101;-60
2023/06/24 19:06:58;;;;;;;4.18;3.53;;;24.00;62.90;;;;;;10321459;28;20563;-61
2023/06/24 19:11:59;;;;;;;5.30;3.92;;;24.00;63.10;;;;;;10325321;28;20073;-61
2023/06/24 19:17:00;;;;;;;5.10;3.70;;;24.00;63.10;;;;;;10310168;28;20022;-61
2023/06/24 19:22:03;;;;;;;4.40;3.38;;;24.00;63.20;;;;;;10325900;28;20066;-61
2023/06/24 19:27:04;;;;;;;4.22;3.40;;;24.00;63.30;;;;;;10325750;28;20261;-61
2023/06/24 19:32:05;;;;;;;3.90;2.95;;;24.00;63.40;;;;;;10326861;28;20031;-60
2023/06/24 19:37:06;;;;;;;3.05;2.53;;;23.90;63.40;;;;;;10326519;28;20046;-61
2023/06/24 19:42:07;;;;;;;4.63;3.65;;;23.90;63.40;;;;;;10326266;28;20131;-61
2023/06/24 19:47:08;;;;;;;6.10;3.50;;;24.00;63.60;;;;;;10326044;28;20045;-61
2023/06/24 19:52:08;;;;;;;3.22;2.90;;;23.90;63.70;;;;;;10326332;28;20363;-59
2023/06/24 19:57:09;;;;;;;4.78;3.72;;;23.90;63.60;;;;;;10326056;28;20478;-60
2023/06/24 20:02:10;;;;;;;3.63;2.70;;;23.90;63.60;;;;;;10325577;28;20378;-61
2023/06/24 20:07:10;;;;;;;4.90;3.08;;;23.90;63.70;;;;;;10323918;28;20030;-59
2023/06/24 20:12:11;;;;;;;3.92;3.30;;;23.90;63.70;;;;;;10307990;28;20014;-60
2023/06/24 20:17:12;;;;;;;4.30;3.60;;;23.90;63.80;;;;;;10322703;28;20315;-60
2023/06/24 20:22:13;;;;;;;3.65;2.83;;;23.90;63.80;;;;;;10323477;28;20058;-61
2023/06/24 20:27:14;;;;;;;4.20;3.65;;;23.90;63.80;;;;;;10311510;28;20037;-61
2023/06/24 20:32:14;;;;;;;4.00;3.58;;;23.90;63.80;;;;;;10323052;28;20052;-59
2023/06/24 20:37:15;;;;;;;4.95;3.47;;;23.90;63.90;;;;;;10313601;28;20510;-61
2023/06/24 20:42:16;;;;;;;4.40;3.30;;;23.90;63.90;;;;;;10322318;28;20022;-60
2023/06/24 20:47:16;;;;;;;6.35;3.40;;;23.90;63.90;;;;;;10315341;28;20513;-59
2023/06/24 20:52:17;;;;;;;3.83;2.95;;;23.90;64.10;;;;;;10304631;28;20043;-61
2023/06/24 20:57:18;;;;;;;4.25;3.47;;;23.90;64.10;;;;;;10322204;28;20193;-61
2023/06/24 21:02:18;;;;;;;4.28;3.75;;;23.90;64.70;;;;;;10321663;28;20052;-61
2023/06/24 21:07:19;;;;;;;4.25;3.17;;;23.90;64.10;;;;;;10321816;28;20101;-61
2023/06/24 21:12:19;;;;;;;5.30;3.92;;;23.90;64.30;;;;;;10321688;28;20544;-61
2023/06/24 21:17:20;;;;;;;5.30;4.38;;;23.90;64.50;;;;;;10321350;28;20359;-61
2023/06/24 21:22:21;;;;;;;4.97;3.65;;;23.90;64.40;;;;;;10321465;28;20554;-61
2023/06/24 21:27:21;;;;;;;4.28;3.67;;;23.90;64.40;;;;;;10319569;28;20037;-60
2023/06/24 21:32:22;;;;;;;4.32;3.33;;;23.90;64.40;;;;;;10320682;28;20101;-60
2023/06/24 21:37:23;;;;;;;4.05;3.63;;;23.90;64.60;;;;;;10289971;28;20062;-60
2023/06/24 21:42:23;;;;;;;4.38;3.60;;;23.80;64.50;;;;;;10312178;28;20046;-59
2023/06/24 21:47:24;;;;;;;4.43;3.63;;;23.90;64.60;;;;;;10319260;28;20026;-61
2023/06/24 21:52:25;;;;;;;4.88;4.38;;;23.90;64.40;;;;;;10319320;28;20588;-61
2023/06/24 21:57:25;;;;;;;4.57;3.75;;;23.80;64.40;;;;;;10303621;28;20050;-61
2023/06/24 22:02:26;;;;;;;5.82;3.92;;;23.80;64.40;;;;;;10300515;28;20117;-61
2023/06/24 22:07:27;;;;;;;4.53;3.75;;;23.80;64.50;;;;;;10318471;28;20635;-59
2023/06/24 22:12:27;;;;;;;5.28;4.22;;;23.80;64.40;;;;;;10319378;28;20121;-61
2023/06/24 22:17:28;;;;;;;5.03;4.28;;;23.80;64.40;;;;;;10318712;28;20080;-61
2023/06/24 22:22:29;;;;;;;4.00;3.40;;;23.80;64.50;;;;;;10319650;28;20357;-59
2023/06/24 22:27:29;;;;;;;4.97;3.95;;;23.80;64.50;;;;;;10318741;28;20409;-61
2023/06/24 22:32:30;;;;;;;5.78;4.85;;;23.80;64.50;;;;;;10318536;28;20149;-60
2023/06/24 22:37:31;;;;;;;4.75;4.28;;;23.80;64.50;;;;;;10317937;28;20583;-61
2023/06/24 22:42:32;;;;;;;4.15;3.72;;;23.80;64.50;;;;;;10319467;28;20393;-61
2023/06/24 22:47:32;;;;;;;6.28;4.47;;;23.80;64.50;;;;;;10319748;28;20017;-60
2023/06/24 22:52:33;;;;;;;4.80;3.80;;;23.80;64.50;;;;;;10325453;28;20018;-61
2023/06/24 22:57:34;;;;;;;4.72;3.95;;;23.80;64.50;;;;;;10327273;28;20165;-60
2023/06/24 23:02:35;;;;;;;5.28;4.78;;;23.80;64.50;;;;;;10323961;28;20026;-61
2023/06/24 23:07:36;;;;;;;4.90;4.05;;;23.80;64.50;;;;;;10324964;28;20022;-60
2023/06/24 23:12:38;;;;;;;4.85;4.13;;;23.80;64.50;;;;;;10312715;28;20389;-59
2023/06/24 23:17:39;;;;;;;5.20;4.45;;;23.80;64.50;;;;;;10313716;28;20053;-60
2023/06/24 23:22:40;;;;;;;5.95;4.53;;;23.80;64.60;;;;;;10325700;28;20050;-61
2023/06/24 23:27:41;;;;;;;6.60;4.45;;;23.80;64.50;;;;;;10316406;28;20113;-61
2023/06/24 23:32:43;;;;;;;5.53;4.95;;;23.80;64.50;;;;;;10317097;28;20437;-59
2023/06/24 23:37:44;;;;;;;5.35;4.47;;;23.80;64.50;;;;;;10324124;28;20406;-61
2023/06/24 23:42:45;;;;;;;5.20;4.70;;;23.80;64.50;;;;;;10302649;28;20010;-60
2023/06/24 23:47:46;;;;;;;3.67;3.05;;;23.70;64.50;;;;;;10323565;28;20469;-61
2023/06/24 23:52:46;;;;;;;5.38;4.88;;;23.70;64.50;;;;;;10323405;28;20025;-61
2023/06/24 23:57:47;;;;;;;4.72;4.20;;;23.70;64.50;;;;;;10306573;28;20665;-60
